createdAt,value
2023-05-16T00:01:59.501Z,79.00
2023-05-16T00:04:33.985Z,78.56
2023-05-16T00:07:08.291Z,78.60
2023-05-16T00:09:35.934Z,78.74
2023-05-16T00:12:10.487Z,79.24
2023-05-16T00:14:44.501Z,78.94
2023-05-16T00:17:21.386Z,79.05
2023-05-16T00:19:49.765Z,79.10
2023-05-16T00:22:26.292Z,79.21
2023-05-16T00:25:00.440Z,79.12
2023-05-16T00:27:37.524Z,78.90
2023-05-16T00:30:11.726Z,79.05
2023-05-16T00:32:39.596Z,79.45
2023-05-16T00:35:17.519Z,79.77
2023-05-16T00:37:54.204Z,79.18
2023-05-16T00:40:28.617Z,79.52
2023-05-16T00:42:56.486Z,79.17
2023-05-16T00:45:30.388Z,79.30
2023-05-16T00:48:00.958Z,79.70
2023-05-16T00:50:43.421Z,79.69
2023-05-16T00:53:17.451Z,80.16
2023-05-16T00:55:54.341Z,80.35
2023-05-16T00:58:23.424Z,80.45
2023-05-16T01:00:57.491Z,80.59
2023-05-16T01:03:25.234Z,80.79
2023-05-16T01:05:54.140Z,80.89
2023-05-16T01:08:28.339Z,81.20
2023-05-16T01:11:16.432Z,80.91
2023-05-16T01:13:59.347Z,81.39
2023-05-16T01:16:51.455Z,81.31
2023-05-16T01:19:34.306Z,82.08
2023-05-16T01:22:24.345Z,82.45
2023-05-16T01:25:30.337Z,82.62
2023-05-16T01:28:05.325Z,82.14
2023-05-16T01:30:40.671Z,82.66
2023-05-16T01:33:15.435Z,82.53
2023-05-16T01:36:00.748Z,82.59
2023-05-16T01:38:45.361Z,82.39
2023-05-16T01:41:16.888Z,82.81
2023-05-16T01:43:53.365Z,83.01
2023-05-16T01:46:30.233Z,82.92
2023-05-16T01:49:42.467Z,82.54
2023-05-16T01:52:20.460Z,82.92
2023-05-16T01:55:00.584Z,83.52
2023-05-16T01:57:29.604Z,83.42
2023-05-16T02:00:08.411Z,83.21
2023-05-16T02:02:42.366Z,83.65
2023-05-16T02:05:16.742Z,83.39
2023-05-16T02:07:51.408Z,83.64
2023-05-16T02:10:20.121Z,83.91
2023-05-16T02:12:55.809Z,83.57
2023-05-16T02:15:26.042Z,83.75
2023-05-16T02:17:59.433Z,83.51
2023-05-16T02:20:26.975Z,83.55
2023-05-16T02:23:00.574Z,83.55
2023-05-16T02:25:47.384Z,84.11
2023-05-16T02:28:21.515Z,84.13
2023-05-16T02:30:57.852Z,84.42
2023-05-16T02:33:33.312Z,84.31
2023-05-16T02:36:01.023Z,83.68
2023-05-16T02:38:34.322Z,83.96
2023-05-16T02:41:01.725Z,83.77
2023-05-16T02:43:35.509Z,84.08
2023-05-16T02:46:11.447Z,84.37
2023-05-16T02:48:45.661Z,84.17
2023-05-16T02:51:15.446Z,84.31
2023-05-16T02:53:55.047Z,84.22
2023-05-16T02:56:28.431Z,83.88
2023-05-16T02:58:56.648Z,84.09
2023-05-16T03:01:34.066Z,84.09
2023-05-16T03:04:08.573Z,84.12
2023-05-16T03:06:44.990Z,84.21
2023-05-16T03:09:12.483Z,84.57
2023-05-16T03:11:46.474Z,84.42
2023-05-16T03:14:16.094Z,84.59
2023-05-16T03:16:50.623Z,84.85
2023-05-16T03:19:24.461Z,84.42
2023-05-16T03:21:58.449Z,84.68
2023-05-16T03:24:34.492Z,84.61
2023-05-16T03:27:15.488Z,84.37
2023-05-16T03:29:49.453Z,84.96
2023-05-16T03:32:19.789Z,84.88
2023-05-16T03:34:53.487Z,85.02
2023-05-16T03:37:30.308Z,85.33
2023-05-16T03:39:57.562Z,85.58
2023-05-16T03:42:24.960Z,85.23
2023-05-16T03:44:59.385Z,85.69
2023-05-16T03:47:27.305Z,85.29
2023-05-16T03:50:01.407Z,85.77
2023-05-16T03:52:31.235Z,85.62
2023-05-16T03:55:08.471Z,85.34
2023-05-16T03:57:37.053Z,85.38
2023-05-16T04:00:14.699Z,85.54
2023-05-16T04:02:55.464Z,85.19
2023-05-16T04:05:36.447Z,85.67
2023-05-16T04:08:10.446Z,85.52
2023-05-16T04:10:37.810Z,85.62
2023-05-16T04:13:11.539Z,85.38
2023-05-16T04:15:45.416Z,85.94
2023-05-16T04:18:20.375Z,85.43
2023-05-16T04:20:48.074Z,85.56
2023-05-16T04:23:22.531Z,85.99
2023-05-16T04:26:02.296Z,85.66
2023-05-16T04:28:42.453Z,85.66
2023-05-16T04:31:10.059Z,85.74
2023-05-16T04:33:44.492Z,85.51
2023-05-16T04:36:11.810Z,85.43
2023-05-16T04:38:45.451Z,85.20
2023-05-16T04:41:13.711Z,85.66
2023-05-16T04:43:47.538Z,85.31
2023-05-16T04:46:15.909Z,85.87
2023-05-16T04:48:49.591Z,85.72
2023-05-16T04:51:19.204Z,85.53
2023-05-16T04:53:52.536Z,85.51
2023-05-16T04:56:27.436Z,85.58
2023-05-16T04:59:01.497Z,85.01
2023-05-16T05:01:35.485Z,84.95
2023-05-16T05:04:02.920Z,84.86
2023-05-16T05:06:36.522Z,84.79
2023-05-16T05:09:06.117Z,84.48
2023-05-16T05:11:42.501Z,84.86
2023-05-16T05:14:15.400Z,84.54
2023-05-16T05:16:49.574Z,84.42
2023-05-16T05:19:16.850Z,84.14
2023-05-16T05:21:50.671Z,83.92
2023-05-16T05:24:18.122Z,84.02
2023-05-16T05:26:58.488Z,83.79
2023-05-16T05:29:32.518Z,83.21
2023-05-16T05:32:06.835Z,82.60
2023-05-16T05:34:40.588Z,82.64
2023-05-16T05:37:14.499Z,82.13
2023-05-16T05:39:41.829Z,82.15
2023-05-16T05:42:16.453Z,81.99
2023-05-16T05:44:53.652Z,81.83
2023-05-16T05:47:27.676Z,82.06
2023-05-16T05:50:01.761Z,81.54
2023-05-16T05:52:31.480Z,81.48
2023-05-16T05:55:06.407Z,80.87
2023-05-16T05:57:36.991Z,80.36
2023-05-16T06:00:12.700Z,80.26
2023-05-16T06:02:40.854Z,79.70
2023-05-16T06:05:15.888Z,79.78
2023-05-16T06:07:43.173Z,79.72
2023-05-16T06:10:17.713Z,79.31
2023-05-16T06:12:45.360Z,79.47
2023-05-16T06:15:22.525Z,78.91
2023-05-16T06:17:59.263Z,79.08
2023-05-16T06:20:32.955Z,77.88
2023-05-16T06:23:06.489Z,77.10
2023-05-16T06:25:39.812Z,77.50
2023-05-16T06:28:13.458Z,77.82
2023-05-16T06:30:41.059Z,76.84
2023-05-16T06:33:17.550Z,75.23
2023-05-16T06:35:48.060Z,75.78
2023-05-16T06:38:22.600Z,75.63
2023-05-16T06:40:52.317Z,75.46
2023-05-16T06:43:27.924Z,76.10
2023-05-16T06:45:55.292Z,74.17
2023-05-16T06:48:32.789Z,73.48
2023-05-16T06:51:00.465Z,73.02
2023-05-16T06:53:30.147Z,71.87
2023-05-16T06:56:03.625Z,72.26
2023-05-16T06:58:42.543Z,70.80
2023-05-16T07:01:11.302Z,71.73
2023-05-16T07:03:46.735Z,70.83
2023-05-16T07:06:14.173Z,70.35
2023-05-16T07:08:47.576Z,71.11
2023-05-16T07:11:21.943Z,71.00
2023-05-16T07:13:51.826Z,69.62
2023-05-16T07:16:25.674Z,68.47
2023-05-16T07:18:53.463Z,67.41
2023-05-16T07:21:27.605Z,69.15
2023-05-16T07:23:55.145Z,69.53
2023-05-16T07:26:35.709Z,69.40
2023-05-16T07:29:12.324Z,66.89
2023-05-16T07:31:45.659Z,65.86
2023-05-16T07:34:13.120Z,65.56
2023-05-16T07:36:49.685Z,67.74
2023-05-16T07:39:26.092Z,65.74
2023-05-16T07:41:59.666Z,64.37
2023-05-16T07:44:27.137Z,65.16
2023-05-16T07:46:54.765Z,63.40
2023-05-16T07:49:31.750Z,64.36
2023-05-16T07:51:59.721Z,63.32
2023-05-16T07:54:38.648Z,64.39
2023-05-16T07:57:07.021Z,63.31
2023-05-16T07:59:43.669Z,63.18
2023-05-16T08:02:14.456Z,62.37
2023-05-16T08:04:48.685Z,61.78
2023-05-16T08:07:16.241Z,61.80
2023-05-16T08:09:50.712Z,62.84
2023-05-16T08:12:18.627Z,62.35
2023-05-16T08:14:52.796Z,62.53
2023-05-16T08:17:29.605Z,62.51
2023-05-16T08:20:03.634Z,62.67
2023-05-16T08:22:39.359Z,61.03
2023-05-16T08:25:07.702Z,61.80
2023-05-16T08:27:52.622Z,61.23
2023-05-16T08:30:20.276Z,62.10
2023-05-16T08:33:06.671Z,60.00
2023-05-16T08:35:43.777Z,59.82
2023-05-16T08:38:17.757Z,60.72
2023-05-16T08:40:48.494Z,60.85
2023-05-16T08:43:25.643Z,62.15
2023-05-16T08:45:53.545Z,62.04
2023-05-16T08:48:30.656Z,61.46
2023-05-16T08:51:04.746Z,61.58
2023-05-16T08:53:53.797Z,59.96
2023-05-16T08:56:24.712Z,57.79
2023-05-16T08:59:01.640Z,53.67
2023-05-16T09:01:29.414Z,54.99
2023-05-16T09:04:04.744Z,56.14
2023-05-16T09:06:34.479Z,56.80
2023-05-16T09:09:09.688Z,52.17
2023-05-16T09:11:37.188Z,53.11
2023-05-16T09:14:12.656Z,52.06
2023-05-16T09:16:46.605Z,51.11
2023-05-16T09:19:14.433Z,50.19
2023-05-16T09:21:48.574Z,47.99
2023-05-16T09:24:18.372Z,48.60
2023-05-16T09:26:51.652Z,50.10
2023-05-16T09:29:25.802Z,52.21
2023-05-16T09:31:59.696Z,52.98
2023-05-16T09:34:26.710Z,53.75
2023-05-16T09:37:02.561Z,52.35
2023-05-16T09:39:32.245Z,53.49
2023-05-16T09:42:06.652Z,52.39
2023-05-16T09:44:34.083Z,52.79
2023-05-16T09:47:10.210Z,53.29
2023-05-16T09:49:43.051Z,54.23
2023-05-16T09:52:17.652Z,52.94
2023-05-16T09:54:55.543Z,51.67
2023-05-16T09:57:23.932Z,51.68
2023-05-16T09:59:58.809Z,49.54
2023-05-16T10:02:26.420Z,49.70
2023-05-16T10:05:05.005Z,51.87
2023-05-16T10:07:35.538Z,48.92
2023-05-16T10:10:20.752Z,51.49
2023-05-16T10:12:54.607Z,53.25
2023-05-16T10:15:28.698Z,55.20
2023-05-16T10:18:00.443Z,54.97
2023-05-16T10:20:34.661Z,54.62
2023-05-16T10:23:03.336Z,56.00
2023-05-16T10:25:43.700Z,55.32
2023-05-16T10:28:23.751Z,53.41
2023-05-16T10:30:52.454Z,50.03
2023-05-16T10:33:26.748Z,52.15
2023-05-16T10:36:00.673Z,50.69
2023-05-16T10:38:35.609Z,47.84
2023-05-16T10:41:06.144Z,47.76
2023-05-16T10:43:42.479Z,47.16
2023-05-16T10:46:15.215Z,45.95
2023-05-16T10:48:51.412Z,43.10
2023-05-16T10:51:39.103Z,45.83
2023-05-16T10:54:18.388Z,44.11
2023-05-16T10:56:45.696Z,42.94
2023-05-16T10:59:33.794Z,44.19
2023-05-16T11:02:01.471Z,43.58
2023-05-16T11:04:55.579Z,45.25
2023-05-16T11:07:25.766Z,43.50
2023-05-16T11:10:14.940Z,43.16
2023-05-16T11:12:48.608Z,42.95
2023-05-16T11:15:28.767Z,45.30
2023-05-16T11:18:09.370Z,43.68
2023-05-16T11:20:44.758Z,41.69
2023-05-16T11:23:22.026Z,44.87
2023-05-16T11:26:00.749Z,44.29
2023-05-16T11:28:35.853Z,45.00
2023-05-16T11:31:11.719Z,45.74
2023-05-16T11:33:40.321Z,45.45
2023-05-16T11:36:16.274Z,45.01
2023-05-16T11:38:55.304Z,47.02
2023-05-16T11:41:29.609Z,47.66
2023-05-16T11:43:58.950Z,48.40
2023-05-16T11:46:32.775Z,48.11
2023-05-16T11:48:59.967Z,47.12
2023-05-16T11:51:33.669Z,46.47
2023-05-16T11:54:05.056Z,44.58
2023-05-16T11:56:42.668Z,44.98
2023-05-16T11:59:11.173Z,46.82
2023-05-16T12:01:50.134Z,47.65
2023-05-16T12:04:24.890Z,43.95
2023-05-16T12:07:08.728Z,44.41
2023-05-16T12:09:35.738Z,42.97
2023-05-16T12:12:12.648Z,43.88
2023-05-16T12:14:39.870Z,42.25
2023-05-16T12:17:13.670Z,43.52
2023-05-16T12:19:40.814Z,45.48
2023-05-16T12:22:25.741Z,43.83
2023-05-16T12:24:59.625Z,42.75
2023-05-16T12:27:46.662Z,42.25
2023-05-16T12:30:20.811Z,42.01
2023-05-16T12:32:53.613Z,46.27
2023-05-16T12:35:27.709Z,45.74
2023-05-16T12:37:54.749Z,45.41
2023-05-16T12:40:29.185Z,41.65
2023-05-16T12:43:02.680Z,41.42
2023-05-16T12:45:37.102Z,40.25
2023-05-16T12:48:19.990Z,42.14
2023-05-16T12:50:47.493Z,43.08
2023-05-16T12:53:21.772Z,43.49
2023-05-16T12:55:55.693Z,44.42
2023-05-16T12:58:29.790Z,46.85
2023-05-16T13:01:13.070Z,48.36
2023-05-16T13:03:40.167Z,50.20
2023-05-16T13:06:16.004Z,50.58
2023-05-16T13:08:43.088Z,51.25
2023-05-16T13:11:19.854Z,51.24
2023-05-16T13:13:46.898Z,50.09
2023-05-16T13:16:20.722Z,51.88
2023-05-16T13:18:54.731Z,50.18
2023-05-16T13:21:22.620Z,49.49
2023-05-16T13:23:55.694Z,46.66
2023-05-16T13:26:46.534Z,47.12
2023-05-16T13:29:19.693Z,44.50
2023-05-16T13:31:52.803Z,43.90
2023-05-16T13:34:25.700Z,43.56
2023-05-16T13:36:59.811Z,43.64
2023-05-16T13:39:26.805Z,44.64
2023-05-16T13:42:00.719Z,44.43
2023-05-16T13:44:27.588Z,43.67
2023-05-16T13:47:00.838Z,44.16
2023-05-16T13:49:34.763Z,44.95
2023-05-16T13:52:08.787Z,44.30
2023-05-16T13:54:42.680Z,45.08
2023-05-16T13:57:15.697Z,42.94
2023-05-16T14:02:18.633Z,43.83
2023-05-16T14:04:52.727Z,45.07
2023-05-16T14:07:26.667Z,46.40
2023-05-16T14:10:00.774Z,44.75
2023-05-16T14:12:36.626Z,44.74
2023-05-16T14:15:09.831Z,44.34
2023-05-16T14:17:37.291Z,45.18
2023-05-16T14:20:15.844Z,46.64
2023-05-16T14:22:42.794Z,47.91
2023-05-16T14:25:10.018Z,49.25
2023-05-16T14:27:43.804Z,51.86
2023-05-16T14:30:17.961Z,52.22
2023-05-16T14:32:44.867Z,52.99
2023-05-16T14:35:21.833Z,53.47
2023-05-16T14:37:48.884Z,53.90
2023-05-16T14:40:22.983Z,53.14
2023-05-16T14:42:51.067Z,52.07
2023-05-16T14:45:25.962Z,52.59
2023-05-16T14:48:08.128Z,52.60
2023-05-16T14:50:35.540Z,52.40
2023-05-16T14:53:10.914Z,52.72
2023-05-16T14:55:40.659Z,53.42
2023-05-16T14:58:16.788Z,55.79
2023-05-16T15:00:43.967Z,56.20
2023-05-16T15:03:17.845Z,57.77
2023-05-16T15:05:45.776Z,57.83
2023-05-16T15:08:19.788Z,58.73
2023-05-16T15:10:50.115Z,57.63
2023-05-16T15:13:23.811Z,57.53
2023-05-16T15:15:50.903Z,58.75
2023-05-16T15:18:24.840Z,58.22
2023-05-16T15:20:53.593Z,58.32
2023-05-16T15:23:27.809Z,55.73
2023-05-16T15:25:55.213Z,55.56
2023-05-16T15:28:37.879Z,55.46
2023-05-16T15:31:12.930Z,55.83
2023-05-16T15:33:40.236Z,55.34
2023-05-16T15:36:13.856Z,54.02
2023-05-16T15:38:53.034Z,54.31
2023-05-16T15:43:59.131Z,56.76
2023-05-16T15:46:36.846Z,57.00
2023-05-16T15:49:04.090Z,55.63
2023-05-16T15:51:40.883Z,55.38
2023-05-16T15:54:08.600Z,55.83
2023-05-16T15:56:41.944Z,55.85
2023-05-16T15:59:15.936Z,54.81
2023-05-16T16:01:43.123Z,55.19
2023-05-16T16:04:16.856Z,55.16
2023-05-16T16:06:43.953Z,55.84
2023-05-16T16:09:19.833Z,55.90
2023-05-16T16:11:49.704Z,55.75
2023-05-16T16:14:23.788Z,56.63
2023-05-16T16:16:51.427Z,56.19
2023-05-16T16:19:26.794Z,56.59
2023-05-16T16:21:54.438Z,56.88
2023-05-16T16:24:27.874Z,57.24
2023-05-16T16:27:01.242Z,57.06
2023-05-16T16:29:42.000Z,58.71
2023-05-16T16:32:17.905Z,59.29
2023-05-16T16:34:45.169Z,59.19
2023-05-16T16:37:18.868Z,58.99
2023-05-16T16:39:45.985Z,60.01
2023-05-16T16:42:19.882Z,59.34
2023-05-16T16:44:47.185Z,59.89
2023-05-16T16:47:21.012Z,60.06
2023-05-16T16:49:48.189Z,60.09
2023-05-16T16:52:21.842Z,59.75
2023-05-16T16:54:49.117Z,60.51
2023-05-16T16:57:23.880Z,60.52
2023-05-16T16:59:51.661Z,60.70
2023-05-16T17:02:25.911Z,60.59
2023-05-16T17:04:53.352Z,60.12
2023-05-16T17:07:26.891Z,60.58
2023-05-16T17:09:54.993Z,60.77
2023-05-16T17:12:28.933Z,63.01
2023-05-16T17:15:05.931Z,63.91
2023-05-16T17:17:39.947Z,65.33
2023-05-16T17:20:15.005Z,64.24
2023-05-16T17:22:47.999Z,64.58
2023-05-16T17:25:21.958Z,64.16
2023-05-16T17:27:56.257Z,63.89
2023-05-16T17:30:30.052Z,63.58
2023-05-16T17:32:58.021Z,62.82
2023-05-16T17:35:31.964Z,62.17
2023-05-16T17:37:59.828Z,62.11
2023-05-16T17:40:33.877Z,60.94
2023-05-16T17:43:01.270Z,60.76
2023-05-16T17:45:35.248Z,61.24
2023-05-16T17:48:02.755Z,62.42
2023-05-16T17:50:30.362Z,62.68
2023-05-16T17:53:03.882Z,63.84
2023-05-16T17:55:31.184Z,62.91
2023-05-16T17:58:04.989Z,62.81
2023-05-16T18:00:32.982Z,63.13
2023-05-16T18:03:07.073Z,63.38
2023-05-16T18:05:34.595Z,63.56
2023-05-16T18:08:09.824Z,64.01
2023-05-16T18:10:50.989Z,64.36
2023-05-16T18:13:24.867Z,63.94
2023-05-16T18:15:52.981Z,63.45
2023-05-16T18:18:26.918Z,64.28
2023-05-16T18:21:00.965Z,63.97
2023-05-16T18:23:28.451Z,64.51
2023-05-16T18:26:02.918Z,66.26
2023-05-16T18:28:39.826Z,65.43
2023-05-16T18:31:14.035Z,64.89
2023-05-16T18:33:41.419Z,64.79
2023-05-16T18:36:14.923Z,64.89
2023-05-16T18:38:49.046Z,64.46
2023-05-16T18:41:22.945Z,64.60
2023-05-16T18:43:50.266Z,64.78
2023-05-16T18:46:23.882Z,65.52
2023-05-16T18:48:51.292Z,66.18
2023-05-16T18:51:24.917Z,65.91
2023-05-16T18:53:52.414Z,65.61
2023-05-16T18:56:25.911Z,66.11
2023-05-16T18:58:55.381Z,65.58
2023-05-16T19:01:28.922Z,65.72
2023-05-16T19:03:56.636Z,66.11
2023-05-16T19:06:24.387Z,66.64
2023-05-16T19:08:57.936Z,67.78
2023-05-16T19:11:25.177Z,66.66
2023-05-16T19:14:01.651Z,67.16
2023-05-16T19:16:34.928Z,67.25
2023-05-16T19:19:09.024Z,67.72
2023-05-16T19:21:36.999Z,69.06
2023-05-16T19:24:10.982Z,69.14
2023-05-16T19:26:38.444Z,69.07
2023-05-16T19:29:28.022Z,68.98
2023-05-16T19:31:55.085Z,68.61
2023-05-16T19:34:29.070Z,69.07
2023-05-16T19:36:56.444Z,69.27
2023-05-16T19:39:30.192Z,69.92
2023-05-16T19:42:07.359Z,70.53
2023-05-16T19:44:35.530Z,70.35
2023-05-16T19:47:10.798Z,71.16
2023-05-16T19:49:38.079Z,70.32
2023-05-16T19:52:14.893Z,70.67
2023-05-16T19:54:42.167Z,71.26
2023-05-16T19:57:15.923Z,71.33
2023-05-16T19:59:45.903Z,72.18
2023-05-16T20:02:21.227Z,72.20
2023-05-16T20:04:50.961Z,71.42
2023-05-16T20:07:24.881Z,71.47
2023-05-16T20:09:52.344Z,71.40
2023-05-16T20:12:25.955Z,72.15
2023-05-16T20:14:53.029Z,72.41
2023-05-16T20:17:27.059Z,72.17
2023-05-16T20:19:55.052Z,71.48
2023-05-16T20:22:28.911Z,71.79
2023-05-16T20:24:56.133Z,72.50
2023-05-16T20:27:43.031Z,72.85
2023-05-16T20:30:18.290Z,72.65
2023-05-16T20:32:45.703Z,72.89
2023-05-16T20:35:22.201Z,73.46
2023-05-16T20:37:49.272Z,73.24
2023-05-16T20:40:24.007Z,73.16
2023-05-16T20:42:51.074Z,73.07
2023-05-16T20:45:27.412Z,73.62
2023-05-16T20:48:01.166Z,73.88
2023-05-16T20:50:28.579Z,73.80
2023-05-16T20:53:03.396Z,74.79
2023-05-16T20:55:31.474Z,74.13
2023-05-16T20:58:05.221Z,74.16
2023-05-16T21:00:37.442Z,73.97
2023-05-16T21:03:11.061Z,74.15
2023-05-16T21:05:45.523Z,74.01
2023-05-16T21:08:20.975Z,74.40
2023-05-16T21:10:48.247Z,74.60
2023-05-16T21:13:21.884Z,74.63
2023-05-16T21:15:49.830Z,74.49
2023-05-16T21:18:24.125Z,74.35
2023-05-16T21:20:51.265Z,74.16
2023-05-16T21:23:25.095Z,74.89
2023-05-16T21:25:52.424Z,74.94
2023-05-16T21:28:36.855Z,74.31
2023-05-16T21:31:16.214Z,74.87
2023-05-16T21:33:49.990Z,75.37
2023-05-16T21:36:17.365Z,75.36
2023-05-16T21:38:44.284Z,76.06
2023-05-16T21:41:18.070Z,75.48
2023-05-16T21:43:47.962Z,75.31
2023-05-16T21:46:22.050Z,75.65
2023-05-16T21:48:49.236Z,75.74
2023-05-16T21:51:22.994Z,75.78
2023-05-16T21:53:50.127Z,76.07
2023-05-16T21:56:25.014Z,76.00
2023-05-16T21:58:58.286Z,75.96
2023-05-16T22:01:35.076Z,76.12
2023-05-16T22:04:02.984Z,76.56
2023-05-16T22:06:37.966Z,76.46
2023-05-16T22:09:05.326Z,76.15
2023-05-16T22:11:39.035Z,76.52
2023-05-16T22:14:07.833Z,77.21
2023-05-16T22:16:43.567Z,77.59
2023-05-16T22:19:10.947Z,77.50
2023-05-16T22:21:48.068Z,78.09
2023-05-16T22:24:22.404Z,78.47
2023-05-16T22:26:49.815Z,78.69
2023-05-16T22:29:30.043Z,77.84
2023-05-16T22:32:04.312Z,78.88
2023-05-16T22:34:38.046Z,79.00
2023-05-16T22:37:12.134Z,79.09
2023-05-16T22:39:46.007Z,79.17
2023-05-16T22:42:15.977Z,79.62
2023-05-16T22:44:53.086Z,79.48
2023-05-16T22:47:26.961Z,79.66
2023-05-16T22:50:00.988Z,79.92
2023-05-16T22:52:30.355Z,79.90
2023-05-16T22:55:05.545Z,80.12
2023-05-16T22:57:32.748Z,80.61
2023-05-16T23:00:10.961Z,80.75
2023-05-16T23:02:38.425Z,81.10
2023-05-16T23:05:06.415Z,81.04
2023-05-16T23:07:40.228Z,81.32
2023-05-16T23:10:14.685Z,81.72
2023-05-16T23:12:48.426Z,81.40
2023-05-16T23:15:18.892Z,81.91
2023-05-16T23:17:53.109Z,82.08
2023-05-16T23:20:20.808Z,81.61
2023-05-16T23:22:55.185Z,82.21
2023-05-16T23:25:22.923Z,82.28
2023-05-16T23:27:57.148Z,81.60
2023-05-16T23:30:30.848Z,81.61
2023-05-16T23:33:07.230Z,81.79
2023-05-16T23:35:35.037Z,81.91
2023-05-16T23:38:09.049Z,82.16
2023-05-16T23:40:46.214Z,81.79
2023-05-16T23:43:13.581Z,82.53
2023-05-16T23:45:47.142Z,81.97
2023-05-16T23:48:14.878Z,81.52
2023-05-16T23:50:49.356Z,81.78
2023-05-16T23:53:17.114Z,82.22
2023-05-16T23:55:51.287Z,82.61
2023-05-16T23:58:20.994Z,82.49
